createdAt,value
2024-05-09T00:00:36.211Z,17.52
2024-05-09T00:03:10.495Z,16.75
2024-05-09T00:05:41.344Z,17.55
2024-05-09T00:08:09.493Z,17.25
2024-05-09T00:10:38.675Z,17.08
2024-05-09T00:13:07.631Z,16.10
2024-05-09T00:15:37.393Z,16.77
2024-05-09T00:18:05.212Z,15.57
2024-05-09T00:23:08.737Z,17.65
2024-05-09T00:28:03.120Z,18.00
2024-05-09T00:30:34.231Z,18.33
2024-05-09T00:33:07.885Z,18.60
2024-05-09T00:35:36.054Z,18.13
2024-05-09T00:38:03.835Z,19.35
2024-05-09T00:40:41.618Z,18.77
2024-05-09T00:43:11.385Z,19.25
2024-05-09T00:45:38.603Z,18.77
2024-05-09T00:48:07.714Z,16.90
2024-05-09T00:50:37.747Z,18.90
2024-05-09T00:53:10.317Z,18.83
2024-05-09T00:55:37.849Z,17.77
2024-05-09T00:58:05.524Z,17.48
2024-05-09T01:00:38.745Z,17.52
2024-05-09T01:03:09.054Z,18.58
2024-05-09T01:05:39.170Z,18.13
2024-05-09T01:08:06.877Z,17.80
2024-05-09T01:10:35.388Z,16.85
2024-05-09T01:13:03.840Z,17.00
2024-05-09T01:15:30.699Z,17.58
2024-05-09T01:17:58.119Z,17.10
2024-05-09T01:20:36.529Z,17.92
2024-05-09T01:23:09.010Z,16.83
2024-05-09T01:25:36.010Z,16.70
2024-05-09T01:28:02.735Z,16.70
2024-05-09T01:30:34.707Z,17.08
2024-05-09T01:33:04.510Z,18.25
2024-05-09T01:35:31.820Z,17.38
2024-05-09T01:37:58.704Z,17.35
2024-05-09T01:40:35.515Z,18.88
2024-05-09T01:43:05.150Z,18.90
2024-05-09T01:45:31.847Z,18.17
2024-05-09T01:47:58.886Z,16.85
2024-05-09T01:50:37.056Z,16.17
2024-05-09T01:53:07.679Z,16.65
2024-05-09T01:55:34.589Z,17.48
2024-05-09T01:58:01.331Z,16.38
2024-05-09T02:00:37.974Z,17.38
2024-05-09T02:03:15.421Z,18.25
2024-05-09T02:05:48.293Z,17.23
2024-05-09T02:08:19.892Z,16.17
2024-05-09T02:10:48.260Z,16.52
2024-05-09T02:13:15.802Z,16.45
2024-05-09T02:15:42.665Z,17.15
2024-05-09T02:18:10.407Z,17.63
2024-05-09T02:20:41.752Z,14.85
2024-05-09T02:23:09.775Z,17.75
2024-05-09T02:25:36.714Z,15.05
2024-05-09T02:28:03.494Z,16.48
2024-05-09T02:30:38.713Z,18.25
2024-05-09T02:33:09.962Z,17.08
2024-05-09T02:35:38.514Z,18.45
2024-05-09T02:38:05.357Z,17.58
2024-05-09T02:40:37.231Z,16.92
2024-05-09T02:43:07.191Z,18.75
2024-05-09T02:45:34.368Z,17.52
2024-05-09T02:48:01.883Z,18.95
2024-05-09T02:50:37.067Z,16.05
2024-05-09T02:53:09.996Z,15.45
2024-05-09T02:55:40.532Z,17.40
2024-05-09T02:58:07.485Z,17.23
2024-05-09T03:00:38.957Z,16.83
2024-05-09T03:03:12.054Z,16.80
2024-05-09T03:05:41.114Z,15.20
2024-05-09T03:08:08.249Z,17.67
2024-05-09T03:10:37.273Z,17.45
2024-05-09T03:13:09.115Z,16.55
2024-05-09T03:15:36.159Z,21.58
2024-05-09T03:18:03.493Z,20.63
2024-05-09T03:20:34.360Z,22.02
2024-05-09T03:23:03.197Z,22.42
2024-05-09T03:25:30.153Z,22.55
2024-05-09T03:27:56.956Z,19.77
2024-05-09T03:30:38.432Z,19.33
2024-05-09T03:33:18.348Z,20.00
2024-05-09T03:35:46.950Z,18.23
2024-05-09T03:38:13.933Z,21.13
2024-05-09T03:40:48.607Z,21.00
2024-05-09T03:43:16.254Z,18.75
2024-05-09T03:45:43.415Z,19.02
2024-05-09T03:48:10.782Z,20.83
2024-05-09T03:50:38.063Z,19.70
2024-05-09T03:53:05.347Z,22.25
2024-05-09T03:55:32.180Z,23.08
2024-05-09T03:57:59.253Z,22.63
2024-05-09T04:00:34.509Z,23.10
2024-05-09T04:03:07.620Z,23.65
2024-05-09T04:05:38.144Z,25.83
2024-05-09T04:08:05.610Z,25.15
2024-05-09T04:10:34.239Z,22.55
2024-05-09T04:13:02.900Z,24.48
2024-05-09T04:15:29.904Z,22.98
2024-05-09T04:17:56.826Z,25.90
2024-05-09T04:20:34.366Z,26.55
2024-05-09T04:23:06.824Z,25.08
2024-05-09T04:25:34.022Z,25.67
2024-05-09T04:28:00.796Z,25.90
2024-05-09T04:30:36.381Z,27.08
2024-05-09T04:33:07.760Z,23.02
2024-05-09T04:35:36.075Z,26.63
2024-05-09T04:38:02.975Z,26.50
2024-05-09T04:40:34.167Z,25.27
2024-05-09T04:43:04.324Z,26.30
2024-05-09T04:45:31.280Z,26.10
2024-05-09T04:47:58.579Z,25.63
2024-05-09T04:50:33.824Z,25.05
2024-05-09T04:53:05.063Z,25.55
2024-05-09T04:55:32.614Z,24.05
2024-05-09T04:57:59.303Z,23.80
2024-05-09T05:00:32.694Z,22.38
2024-05-09T05:03:10.197Z,25.00
2024-05-09T05:05:40.874Z,25.95
2024-05-09T05:08:18.959Z,25.20
2024-05-09T05:10:47.149Z,25.23
2024-05-09T05:13:23.056Z,23.52
2024-05-09T05:15:57.289Z,24.00
2024-05-09T05:18:25.792Z,24.17
2024-05-09T05:20:52.874Z,26.02
2024-05-09T05:23:20.942Z,23.08
2024-05-09T05:25:53.223Z,26.33
2024-05-09T05:28:20.631Z,25.48
2024-05-09T05:30:47.540Z,27.45
2024-05-09T05:33:15.969Z,27.55
2024-05-09T05:35:43.288Z,25.70
2024-05-09T05:38:10.864Z,25.23
2024-05-09T05:40:38.973Z,29.38
2024-05-09T05:43:10.782Z,26.55
2024-05-09T05:45:38.035Z,29.92
2024-05-09T05:48:06.517Z,28.40
2024-05-09T05:50:36.922Z,27.15
2024-05-09T05:53:09.517Z,26.60
2024-05-09T05:55:37.578Z,27.08
2024-05-09T05:58:04.544Z,26.60
2024-05-09T06:00:38.202Z,25.73
2024-05-09T06:03:10.789Z,26.75
2024-05-09T06:05:44.005Z,25.88
2024-05-09T06:08:11.501Z,26.10
2024-05-09T06:10:40.513Z,27.25
2024-05-09T06:13:11.248Z,28.08
2024-05-09T06:15:38.355Z,23.05
2024-05-09T06:18:06.704Z,28.10
2024-05-09T06:20:36.599Z,24.48
2024-05-09T06:23:08.891Z,27.13
2024-05-09T06:25:36.328Z,27.25
2024-05-09T06:28:03.543Z,27.38
2024-05-09T06:30:37.858Z,27.02
2024-05-09T06:33:08.676Z,27.65
2024-05-09T06:35:36.195Z,27.25
2024-05-09T06:38:03.016Z,28.00
2024-05-09T06:40:37.138Z,27.10
2024-05-09T06:43:11.328Z,27.50
2024-05-09T06:45:39.878Z,24.90
2024-05-09T06:48:07.665Z,25.08
2024-05-09T06:50:37.944Z,27.85
2024-05-09T06:53:06.401Z,27.90
2024-05-09T06:55:33.239Z,27.15
2024-05-09T06:57:59.899Z,26.95
2024-05-09T07:00:35.097Z,27.13
2024-05-09T07:03:15.492Z,25.45
2024-05-09T07:05:44.694Z,23.08
2024-05-09T07:08:11.613Z,25.33
2024-05-09T07:10:38.632Z,24.98
2024-05-09T07:13:10.234Z,25.35
2024-05-09T07:15:37.611Z,25.52
2024-05-09T07:18:16.697Z,25.38
2024-05-09T07:20:45.424Z,25.92
2024-05-09T07:23:12.801Z,23.83
2024-05-09T07:25:40.575Z,23.88
2024-05-09T07:28:13.141Z,23.55
2024-05-09T07:30:39.835Z,24.20
2024-05-09T07:33:06.744Z,24.23
2024-05-09T07:35:33.741Z,22.77
2024-05-09T07:38:00.664Z,20.30
2024-05-09T07:40:35.013Z,22.08
2024-05-09T07:43:13.244Z,22.98
2024-05-09T07:45:49.566Z,21.50
2024-05-09T07:52:37.356Z,21.45
2024-05-09T07:53:47.528Z,20.48
2024-05-09T07:56:18.618Z,17.35
2024-05-09T07:58:46.292Z,22.50
2024-05-09T08:01:13.135Z,21.77
2024-05-09T08:03:40.144Z,22.00
2024-05-09T08:06:07.000Z,21.70
2024-05-09T08:08:33.658Z,22.83
2024-05-09T08:11:00.363Z,21.50
2024-05-09T08:13:27.025Z,21.25
2024-05-09T08:15:53.779Z,21.52
2024-05-09T08:18:20.619Z,22.20
2024-05-09T08:20:48.466Z,21.92
2024-05-09T08:23:15.226Z,20.42
2024-05-09T08:25:41.917Z,20.63
2024-05-09T08:28:08.703Z,20.55
2024-05-09T08:30:37.457Z,20.35
2024-05-09T08:33:06.628Z,19.67
2024-05-09T08:35:34.565Z,20.30
2024-05-09T08:38:05.369Z,18.52
2024-05-09T08:40:35.818Z,19.05
2024-05-09T08:43:08.618Z,18.75
2024-05-09T08:45:38.433Z,18.42
2024-05-09T08:48:08.220Z,18.98
2024-05-09T08:50:38.931Z,20.73
2024-05-09T08:53:10.107Z,20.13
2024-05-09T08:55:40.768Z,17.65
2024-05-09T08:58:13.785Z,16.80
2024-05-09T09:00:42.240Z,17.67
2024-05-09T09:03:09.951Z,16.70
2024-05-09T09:05:39.322Z,18.75
2024-05-09T09:08:08.231Z,17.77
2024-05-09T09:10:35.432Z,18.05
2024-05-09T09:13:04.902Z,21.70
2024-05-09T09:15:32.679Z,20.98
2024-05-09T09:18:01.049Z,20.40
2024-05-09T09:20:35.489Z,20.20
2024-05-09T09:23:04.123Z,20.58
2024-05-09T09:25:31.073Z,20.02
2024-05-09T09:27:58.207Z,18.23
2024-05-09T09:30:36.424Z,18.35
2024-05-09T09:33:06.340Z,19.15
2024-05-09T09:35:34.155Z,19.45
2024-05-09T09:38:05.894Z,18.83
2024-05-09T09:40:40.877Z,19.25
2024-05-09T09:43:15.202Z,18.25
2024-05-09T09:45:43.837Z,19.85
2024-05-09T09:48:12.207Z,20.20
2024-05-09T09:50:40.182Z,20.05
2024-05-09T09:53:07.688Z,18.60
2024-05-09T09:55:35.079Z,18.60
2024-05-09T09:58:04.604Z,16.42
2024-05-09T10:00:33.720Z,18.33
2024-05-09T10:03:01.792Z,17.27
2024-05-09T10:05:29.211Z,16.65
2024-05-09T10:07:56.605Z,18.52
2024-05-09T10:10:31.578Z,17.45
2024-05-09T10:13:07.067Z,18.60
2024-05-09T10:15:50.726Z,18.00
2024-05-09T10:18:22.681Z,18.48
2024-05-09T10:20:51.842Z,18.35
2024-05-09T10:23:27.937Z,16.77
2024-05-09T10:25:59.060Z,18.10
2024-05-09T10:28:29.513Z,17.30
2024-05-09T10:31:11.014Z,17.52
2024-05-09T10:33:52.247Z,13.63
2024-05-09T10:36:26.517Z,16.23
2024-05-09T10:38:54.266Z,17.33
2024-05-09T10:41:21.778Z,19.08
2024-05-09T10:43:49.073Z,17.98
2024-05-09T10:46:16.503Z,19.80
2024-05-09T10:48:44.431Z,18.92
2024-05-09T10:51:11.585Z,20.50
2024-05-09T10:53:42.543Z,20.35
2024-05-09T10:56:09.751Z,21.95
2024-05-09T10:58:36.727Z,21.42
2024-05-09T11:01:06.775Z,22.45
2024-05-09T11:03:34.565Z,23.20
2024-05-09T11:06:01.542Z,23.17
2024-05-09T11:08:28.658Z,23.23
2024-05-09T11:10:56.426Z,21.85
2024-05-09T11:13:27.886Z,19.48
2024-05-09T11:15:54.832Z,22.95
2024-05-09T11:18:25.520Z,20.20
2024-05-09T11:20:54.317Z,23.10
2024-05-09T11:23:22.670Z,21.92
2024-05-09T11:25:50.155Z,20.92
2024-05-09T11:28:20.439Z,19.52
2024-05-09T11:30:48.841Z,21.23
2024-05-09T11:33:17.499Z,23.50
2024-05-09T11:35:45.257Z,20.58
2024-05-09T11:38:12.280Z,23.55
2024-05-09T11:40:39.488Z,22.35
2024-05-09T11:43:06.586Z,23.20
2024-05-09T11:45:33.432Z,23.23
2024-05-09T11:48:00.293Z,20.23
2024-05-09T11:50:32.775Z,21.50
2024-05-09T11:53:02.474Z,23.90
2024-05-09T11:55:29.323Z,25.00
2024-05-09T11:57:56.951Z,25.85
2024-05-09T12:00:33.016Z,23.70
2024-05-09T12:03:04.954Z,23.25
2024-05-09T12:05:32.405Z,25.40
2024-05-09T12:07:59.420Z,26.52
2024-05-09T12:10:32.435Z,23.63
2024-05-09T12:13:01.961Z,25.50
2024-05-09T12:15:28.884Z,26.00
2024-05-09T12:17:58.210Z,28.58
2024-05-09T12:20:35.125Z,27.85
2024-05-09T12:23:05.064Z,30.58
2024-05-09T12:25:31.706Z,31.25
2024-05-09T12:27:58.619Z,32.00
2024-05-09T12:30:33.335Z,32.67
2024-05-09T12:33:04.999Z,32.20
2024-05-09T12:35:31.981Z,30.70
2024-05-09T12:37:58.776Z,31.00
2024-05-09T12:40:34.367Z,29.13
2024-05-09T12:43:04.847Z,30.70
2024-05-09T12:45:31.938Z,29.52
2024-05-09T12:47:58.915Z,31.83
2024-05-09T12:50:32.275Z,30.50
2024-05-09T12:53:01.108Z,31.17
2024-05-09T12:55:28.646Z,32.53
2024-05-09T12:57:58.518Z,30.73
2024-05-09T13:00:31.467Z,31.50
2024-05-09T13:03:01.028Z,31.15
2024-05-09T13:05:28.603Z,32.13
2024-05-09T13:07:56.861Z,30.17
2024-05-09T13:10:31.133Z,31.77
2024-05-09T13:13:00.763Z,30.48
2024-05-09T13:15:28.071Z,31.08
2024-05-09T13:17:57.900Z,29.67
2024-05-09T13:20:32.376Z,29.98
2024-05-09T13:23:02.126Z,28.13
2024-05-09T13:27:56.468Z,27.35
2024-05-09T13:30:29.783Z,25.08
2024-05-09T13:33:06.079Z,25.85
2024-05-09T13:35:35.088Z,26.27
2024-05-09T13:38:02.717Z,23.58
2024-05-09T13:40:33.843Z,20.42
2024-05-09T13:43:03.326Z,22.38
2024-05-09T13:45:30.195Z,23.73
2024-05-09T13:47:57.234Z,24.30
2024-05-09T13:50:33.073Z,24.80
2024-05-09T13:53:02.669Z,21.40
2024-05-09T13:55:29.445Z,23.90
2024-05-09T13:57:56.390Z,26.08
2024-05-09T14:00:37.464Z,23.00
2024-05-09T14:03:10.148Z,21.98
2024-05-09T14:05:37.203Z,22.40
2024-05-09T14:08:04.319Z,24.13
2024-05-09T14:10:32.178Z,22.90
2024-05-09T14:13:00.746Z,24.10
2024-05-09T14:15:27.798Z,25.23
2024-05-09T14:17:55.128Z,25.50
2024-05-09T14:20:30.121Z,24.42
2024-05-09T14:23:02.007Z,22.60
2024-05-09T14:25:30.450Z,21.48
2024-05-09T14:28:00.591Z,23.38
2024-05-09T14:30:34.798Z,22.60
2024-05-09T14:33:05.428Z,21.45
2024-05-09T14:35:32.807Z,21.13
2024-05-09T14:37:59.501Z,18.45
2024-05-09T14:40:36.667Z,18.92
2024-05-09T14:43:08.617Z,17.83
2024-05-09T14:45:35.834Z,17.17
2024-05-09T14:48:03.563Z,16.88
2024-05-09T14:50:36.073Z,17.80
2024-05-09T14:53:06.834Z,16.85
2024-05-09T14:55:37.385Z,15.82
2024-05-09T14:58:11.841Z,19.00
2024-05-09T15:00:46.755Z,16.83
2024-05-09T15:03:18.245Z,18.13
2024-05-09T15:05:45.372Z,17.63
2024-05-09T15:08:12.161Z,18.05
2024-05-09T15:10:39.164Z,17.13
2024-05-09T15:13:08.067Z,15.38
2024-05-09T15:15:36.789Z,15.25
2024-05-09T15:18:04.499Z,15.82
2024-05-09T15:20:35.485Z,15.93
2024-05-09T15:23:05.033Z,15.63
2024-05-09T15:25:33.348Z,14.65
2024-05-09T15:28:00.260Z,15.27
2024-05-09T15:30:31.446Z,16.48
2024-05-09T15:33:00.869Z,16.48
2024-05-09T15:35:27.968Z,17.55
2024-05-09T15:37:54.868Z,17.45
2024-05-09T15:40:30.910Z,16.75
2024-05-09T15:43:05.124Z,16.42
2024-05-09T15:45:32.349Z,17.50
2024-05-09T15:47:59.722Z,17.25
2024-05-09T15:50:36.376Z,15.73
2024-05-09T15:53:07.918Z,15.82
2024-05-09T15:55:35.561Z,16.98
2024-05-09T15:58:03.145Z,15.75
2024-05-09T16:00:37.435Z,15.52
2024-05-09T16:03:08.357Z,15.13
2024-05-09T16:05:35.387Z,15.93
2024-05-09T16:08:02.637Z,16.17
2024-05-09T16:10:32.866Z,15.65
2024-05-09T16:13:01.809Z,15.80
2024-05-09T16:15:28.957Z,16.08
2024-05-09T16:17:56.316Z,15.82
2024-05-09T16:22:52.834Z,15.38
2024-05-09T16:25:19.697Z,17.98
2024-05-09T16:27:46.532Z,21.48
2024-05-09T16:30:20.987Z,20.17
2024-05-09T16:32:54.083Z,19.67
2024-05-09T16:35:20.787Z,17.98
2024-05-09T16:37:47.876Z,17.23
2024-05-09T16:40:22.166Z,16.65
2024-05-09T16:42:56.847Z,18.13
2024-05-09T16:45:23.486Z,17.77
2024-05-09T16:47:50.497Z,17.48
2024-05-09T16:50:25.712Z,16.92
2024-05-09T16:52:55.871Z,16.77
2024-05-09T16:55:22.777Z,16.15
2024-05-09T16:57:49.905Z,19.60
2024-05-09T17:00:25.524Z,18.00
2024-05-09T17:02:58.384Z,18.90
2024-05-09T17:05:25.379Z,20.48
2024-05-09T17:07:52.136Z,19.98
2024-05-09T17:10:26.694Z,18.08
2024-05-09T17:12:58.913Z,15.57
2024-05-09T17:15:25.747Z,13.75
2024-05-09T17:17:52.486Z,13.68
2024-05-09T17:20:29.279Z,11.45
2024-05-09T17:23:01.665Z,11.32
2024-05-09T17:27:55.308Z,10.93
2024-05-09T17:30:29.068Z,9.70
2024-05-09T17:33:02.195Z,10.57
2024-05-09T17:35:29.113Z,10.63
2024-05-09T17:37:55.867Z,10.55
2024-05-09T17:40:30.908Z,10.38
2024-05-09T17:43:01.797Z,10.18
2024-05-09T17:45:28.684Z,10.60
2024-05-09T17:47:55.776Z,9.43
2024-05-09T17:50:30.242Z,10.10
2024-05-09T17:53:01.775Z,10.35
2024-05-09T17:55:28.859Z,10.50
2024-05-09T17:57:55.858Z,10.77
2024-05-09T18:00:33.069Z,10.48
2024-05-09T18:03:05.778Z,11.05
2024-05-09T18:05:33.035Z,10.32
2024-05-09T18:08:00.041Z,10.00
2024-05-09T18:10:33.780Z,10.60
2024-05-09T18:13:05.472Z,11.18
2024-05-09T18:15:32.832Z,11.40
2024-05-09T18:17:59.951Z,11.27
2024-05-09T18:20:37.877Z,10.57
2024-05-09T18:23:10.899Z,11.35
2024-05-09T18:25:37.760Z,10.52
2024-05-09T18:28:04.894Z,11.05
2024-05-09T18:30:35.098Z,11.25
2024-05-09T18:33:05.086Z,9.45
2024-05-09T18:35:33.316Z,11.95
2024-05-09T18:38:00.391Z,11.75
2024-05-09T18:40:33.731Z,11.35
2024-05-09T18:43:04.477Z,12.13
2024-05-09T18:45:32.196Z,11.73
2024-05-09T18:47:59.173Z,10.27
2024-05-09T18:50:33.715Z,12.75
2024-05-09T18:53:06.187Z,13.88
2024-05-09T18:55:33.253Z,13.27
2024-05-09T18:58:00.365Z,14.82
2024-05-09T19:00:34.248Z,11.85
2024-05-09T19:03:06.073Z,12.40
2024-05-09T19:05:35.280Z,11.45
2024-05-09T19:08:02.868Z,11.55
2024-05-09T19:10:34.249Z,12.30
2024-05-09T19:13:05.322Z,11.98
2024-05-09T19:15:35.489Z,12.32
2024-05-09T19:18:02.528Z,12.13
2024-05-09T19:20:34.158Z,12.02
2024-05-09T19:23:02.459Z,12.23
2024-05-09T19:25:29.113Z,11.60
2024-05-09T19:27:55.756Z,12.02
2024-05-09T19:30:30.199Z,11.43
2024-05-09T19:33:05.147Z,11.25
2024-05-09T19:35:32.459Z,11.73
2024-05-09T19:37:59.199Z,12.65
2024-05-09T19:40:31.302Z,13.15
2024-05-09T19:43:00.740Z,12.32
2024-05-09T19:45:27.713Z,11.88
2024-05-09T19:47:54.683Z,11.88
2024-05-09T19:50:30.205Z,11.95
2024-05-09T19:53:03.233Z,11.60
2024-05-09T19:55:29.931Z,12.13
2024-05-09T19:57:57.081Z,12.13
2024-05-09T20:00:32.452Z,12.40
2024-05-09T20:03:02.669Z,12.23
2024-05-09T20:05:32.592Z,11.70
2024-05-09T20:07:59.582Z,13.20
2024-05-09T20:10:31.485Z,14.13
2024-05-09T20:13:00.491Z,14.27
2024-05-09T20:15:27.294Z,14.63
2024-05-09T20:17:54.472Z,14.85
2024-05-09T20:20:32.147Z,15.10
2024-05-09T20:23:04.057Z,15.95
2024-05-09T20:25:30.795Z,14.80
2024-05-09T20:27:57.683Z,15.88
2024-05-09T20:30:31.324Z,17.23
2024-05-09T20:33:01.852Z,15.63
2024-05-09T20:35:31.743Z,17.13
2024-05-09T20:37:58.947Z,15.82
2024-05-09T20:40:31.675Z,17.52
2024-05-09T20:43:02.053Z,16.95
2024-05-09T20:45:28.761Z,17.42
2024-05-09T20:47:56.120Z,18.52
2024-05-09T20:50:29.336Z,17.98
2024-05-09T20:53:03.933Z,17.80
2024-05-09T20:55:30.732Z,18.85
2024-05-09T20:57:57.742Z,17.63
2024-05-09T21:00:34.362Z,16.27
2024-05-09T21:03:07.002Z,16.60
2024-05-09T21:05:34.797Z,16.10
2024-05-09T21:08:02.057Z,14.40
2024-05-09T21:10:32.818Z,15.40
2024-05-09T21:13:01.358Z,15.18
2024-05-09T21:15:28.394Z,16.70
2024-05-09T21:17:55.289Z,16.40
2024-05-09T21:20:28.720Z,17.10
2024-05-09T21:22:58.393Z,14.38
2024-05-09T21:25:25.150Z,17.90
2024-05-09T21:27:52.211Z,16.92
2024-05-09T21:30:28.217Z,16.17
2024-05-09T21:33:05.003Z,16.80
2024-05-09T21:35:32.016Z,16.92
2024-05-09T21:37:58.747Z,17.65
2024-05-09T21:40:31.666Z,17.45
2024-05-09T21:43:01.705Z,17.40
2024-05-09T21:45:28.502Z,16.88
2024-05-09T21:47:55.527Z,17.73
2024-05-09T21:50:28.380Z,16.58
2024-05-09T21:53:02.783Z,17.90
2024-05-09T21:55:30.104Z,17.63
2024-05-09T21:57:57.181Z,17.08
2024-05-09T22:00:32.104Z,18.33
2024-05-09T22:03:03.489Z,16.92
2024-05-09T22:05:30.558Z,19.02
2024-05-09T22:07:57.469Z,18.67
2024-05-09T22:10:30.605Z,18.05
2024-05-09T22:13:01.067Z,20.05
2024-05-09T22:15:27.959Z,19.00
2024-05-09T22:17:55.713Z,21.23
2024-05-09T22:20:29.305Z,20.77
2024-05-09T22:23:03.193Z,20.35
2024-05-09T22:25:31.163Z,20.48
2024-05-09T22:27:58.882Z,18.65
2024-05-09T22:30:34.168Z,19.75
2024-05-09T22:33:05.481Z,20.77
2024-05-09T22:35:32.403Z,19.60
2024-05-09T22:37:59.177Z,18.35
2024-05-09T22:40:38.005Z,20.02
2024-05-09T22:43:12.749Z,20.65
2024-05-09T22:45:39.821Z,17.15
2024-05-09T22:48:08.075Z,20.88
2024-05-09T22:50:35.033Z,20.67
2024-05-09T22:53:01.794Z,19.58
2024-05-09T22:55:28.783Z,20.77
2024-05-09T22:57:55.820Z,21.95
2024-05-09T23:00:30.916Z,21.83
2024-05-09T23:03:00.335Z,23.65
2024-05-09T23:05:27.515Z,22.38
2024-05-09T23:07:54.364Z,21.80
2024-05-09T23:10:28.155Z,22.33
2024-05-09T23:13:01.437Z,22.65
2024-05-09T23:15:28.384Z,21.35
2024-05-09T23:17:55.448Z,23.17
2024-05-09T23:20:33.052Z,22.65
2024-05-09T23:23:05.182Z,23.10
2024-05-09T23:25:31.941Z,24.83
2024-05-09T23:27:58.820Z,24.38
2024-05-09T23:30:33.748Z,24.67
2024-05-09T23:33:05.421Z,24.63
2024-05-09T23:35:32.249Z,25.15
2024-05-09T23:37:58.955Z,24.95
2024-05-09T23:40:36.866Z,26.35
2024-05-09T23:43:07.056Z,25.65
2024-05-09T23:45:34.116Z,25.00
2024-05-09T23:48:01.415Z,26.17
2024-05-09T23:50:34.570Z,23.65
2024-05-09T23:53:04.743Z,26.17
2024-05-09T23:55:32.318Z,26.10
2024-05-09T23:57:59.575Z,25.38
